createdAt,value
2023-03-30T00:01:09.867Z,23.63
2023-03-30T00:03:39.401Z,23.65
2023-03-30T00:06:09.254Z,23.13
2023-03-30T00:08:38.322Z,21.00
2023-03-30T00:11:08.225Z,25.27
2023-03-30T00:13:37.638Z,28.13
2023-03-30T00:16:08.165Z,19.15
2023-03-30T00:18:36.926Z,21.67
2023-03-30T00:21:05.774Z,19.40
2023-03-30T00:23:35.636Z,17.85
2023-03-30T00:26:04.423Z,24.08
2023-03-30T00:28:32.812Z,28.40
2023-03-30T00:31:01.307Z,23.92
2023-03-30T00:33:43.922Z,14.68
2023-03-30T00:36:14.661Z,13.52
2023-03-30T00:38:45.497Z,13.75
2023-03-30T00:41:13.788Z,13.13
2023-03-30T00:43:58.973Z,11.13
2023-03-30T00:46:27.199Z,9.75
2023-03-30T00:48:58.686Z,9.20
2023-03-30T00:51:27.787Z,8.10
2023-03-30T00:54:02.510Z,12.98
2023-03-30T00:56:31.824Z,6.82
2023-03-30T00:59:01.289Z,7.00
2023-03-30T01:01:30.726Z,8.65
2023-03-30T01:04:02.130Z,8.00
2023-03-30T01:06:31.568Z,8.77
2023-03-30T01:09:01.567Z,11.73
2023-03-30T01:11:29.726Z,8.25
2023-03-30T01:14:00.563Z,9.23
2023-03-30T01:16:32.721Z,8.82
2023-03-30T01:22:04.671Z,7.00
2023-03-30T01:28:04.505Z,10.48
2023-03-30T01:30:42.678Z,6.28
2023-03-30T01:33:37.240Z,9.57
2023-03-30T01:36:41.683Z,10.77
2023-03-30T01:39:37.006Z,9.35
2023-03-30T01:42:15.574Z,9.07
2023-03-30T01:44:50.661Z,4.93
2023-03-30T01:47:22.503Z,6.90
2023-03-30T01:49:57.281Z,8.20
2023-03-30T01:52:28.678Z,8.20
2023-03-30T01:55:01.310Z,8.65
2023-03-30T01:57:34.354Z,9.07
2023-03-30T02:00:13.292Z,7.68
2023-03-30T02:02:44.380Z,8.27
2023-03-30T02:05:18.012Z,6.38
2023-03-30T02:07:49.362Z,5.93
2023-03-30T02:10:19.191Z,6.80
2023-03-30T02:12:48.155Z,7.78
2023-03-30T02:15:18.723Z,7.97
2023-03-30T02:17:48.418Z,4.47
2023-03-30T02:20:18.531Z,7.55
2023-03-30T02:22:47.393Z,6.78
2023-03-30T02:25:15.789Z,7.72
2023-03-30T02:27:45.491Z,6.32
2023-03-30T02:30:14.772Z,5.68
2023-03-30T02:32:45.660Z,6.95
2023-03-30T02:35:22.310Z,8.07
2023-03-30T02:38:21.709Z,9.13
2023-03-30T02:40:57.025Z,5.47
2023-03-30T02:43:34.894Z,9.45
2023-03-30T02:46:15.154Z,8.43
2023-03-30T02:48:47.916Z,5.47
2023-03-30T02:53:51.815Z,8.83
2023-03-30T02:56:26.323Z,4.85
2023-03-30T02:58:57.682Z,9.80
2023-03-30T03:01:29.979Z,5.47
2023-03-30T03:03:59.367Z,4.63
2023-03-30T03:06:28.005Z,7.45
2023-03-30T03:08:57.193Z,7.93
2023-03-30T03:11:25.819Z,6.80
2023-03-30T03:13:55.489Z,8.27
2023-03-30T03:16:25.669Z,6.15
2023-03-30T03:18:54.288Z,5.25
2023-03-30T03:21:22.654Z,5.65
2023-03-30T03:23:51.068Z,5.15
2023-03-30T03:26:19.966Z,7.40
2023-03-30T03:28:48.506Z,6.82
2023-03-30T03:31:16.643Z,7.53
2023-03-30T03:33:46.396Z,8.38
2023-03-30T03:36:15.107Z,3.83
2023-03-30T03:38:43.547Z,5.90
2023-03-30T03:41:12.247Z,7.15
2023-03-30T03:43:40.662Z,6.95
2023-03-30T03:46:08.873Z,5.85
2023-03-30T03:48:37.306Z,6.65
2023-03-30T03:51:07.044Z,4.45
2023-03-30T03:53:35.514Z,5.10
2023-03-30T03:56:03.773Z,4.90
2023-03-30T03:58:32.146Z,5.07
2023-03-30T04:01:01.111Z,7.30
2023-03-30T04:03:30.542Z,7.32
2023-03-30T04:06:00.809Z,8.75
2023-03-30T04:08:30.667Z,5.43
2023-03-30T04:11:07.848Z,7.97
2023-03-30T04:13:36.325Z,5.80
2023-03-30T04:16:05.001Z,8.43
2023-03-30T04:18:34.340Z,6.75
2023-03-30T04:21:05.362Z,6.70
2023-03-30T04:23:35.802Z,9.70
2023-03-30T04:26:04.609Z,5.40
2023-03-30T04:28:34.322Z,6.15
2023-03-30T04:31:04.119Z,7.45
2023-03-30T04:33:34.942Z,5.82
2023-03-30T04:36:03.313Z,5.45
2023-03-30T04:38:31.992Z,4.90
2023-03-30T04:41:02.177Z,8.52
2023-03-30T04:43:31.374Z,4.90
2023-03-30T04:45:59.548Z,4.15
2023-03-30T04:48:27.958Z,6.47
2023-03-30T04:50:56.136Z,5.13
2023-03-30T04:53:24.515Z,4.57
2023-03-30T04:55:52.895Z,6.00
2023-03-30T04:58:22.611Z,8.05
2023-03-30T05:00:52.122Z,5.55
2023-03-30T05:03:23.329Z,5.82
2023-03-30T05:05:51.910Z,4.03
2023-03-30T05:08:20.323Z,6.28
2023-03-30T05:10:48.729Z,4.53
2023-03-30T05:13:17.588Z,6.97
2023-03-30T05:15:47.162Z,3.90
2023-03-30T05:18:15.679Z,6.22
2023-03-30T05:20:43.866Z,4.45
2023-03-30T05:23:12.535Z,6.88
2023-03-30T05:25:44.057Z,5.25
2023-03-30T05:28:12.571Z,3.80
2023-03-30T05:30:41.017Z,6.50
2023-03-30T05:33:10.746Z,5.20
2023-03-30T05:35:38.889Z,4.55
2023-03-30T05:38:08.358Z,5.30
2023-03-30T05:40:36.637Z,4.00
2023-03-30T05:43:05.220Z,5.72
2023-03-30T05:45:33.561Z,5.85
2023-03-30T05:48:01.965Z,8.05
2023-03-30T05:50:31.651Z,6.15
2023-03-30T05:53:00.123Z,4.93
2023-03-30T05:55:28.731Z,8.18
2023-03-30T05:57:57.819Z,4.88
2023-03-30T06:00:26.314Z,4.30
2023-03-30T06:02:54.967Z,6.38
2023-03-30T06:05:23.183Z,4.70
2023-03-30T06:07:53.158Z,8.48
2023-03-30T06:10:21.383Z,7.45
2023-03-30T06:12:49.936Z,5.88
2023-03-30T06:15:18.227Z,6.38
2023-03-30T06:17:46.856Z,5.18
2023-03-30T06:20:15.104Z,9.48
2023-03-30T06:22:43.854Z,5.75
2023-03-30T06:25:14.262Z,5.78
2023-03-30T06:27:44.809Z,6.22
2023-03-30T06:30:14.182Z,5.75
2023-03-30T06:32:42.745Z,7.97
2023-03-30T06:35:13.316Z,8.27
2023-03-30T06:37:42.142Z,6.68
2023-03-30T06:40:13.525Z,5.00
2023-03-30T06:42:44.644Z,8.18
2023-03-30T06:45:13.374Z,6.03
2023-03-30T06:47:42.305Z,5.47
2023-03-30T06:50:11.705Z,5.82
2023-03-30T06:52:40.028Z,5.97
2023-03-30T06:55:09.617Z,7.38
2023-03-30T06:57:37.820Z,9.20
2023-03-30T07:00:13.598Z,6.43
2023-03-30T07:02:41.988Z,5.07
2023-03-30T07:05:13.013Z,6.80
2023-03-30T07:07:41.125Z,6.63
2023-03-30T07:10:11.178Z,4.18
2023-03-30T07:12:40.785Z,8.30
2023-03-30T07:15:12.336Z,5.03
2023-03-30T07:17:41.083Z,5.57
2023-03-30T07:20:14.840Z,4.00
2023-03-30T07:22:43.086Z,5.25
2023-03-30T07:25:11.892Z,5.55
2023-03-30T07:27:41.043Z,6.30
2023-03-30T07:30:21.238Z,6.22
2023-03-30T07:32:51.890Z,5.35
2023-03-30T07:35:20.304Z,6.15
2023-03-30T07:37:50.804Z,5.43
2023-03-30T07:40:20.169Z,3.70
2023-03-30T07:42:48.868Z,5.93
2023-03-30T07:45:18.762Z,4.45
2023-03-30T07:47:47.059Z,5.05
2023-03-30T07:50:16.048Z,4.85
2023-03-30T07:52:44.182Z,4.95
2023-03-30T07:55:13.018Z,4.38
2023-03-30T07:57:41.410Z,7.47
2023-03-30T08:00:14.064Z,4.90
2023-03-30T08:02:44.733Z,5.00
2023-03-30T08:05:13.404Z,4.75
2023-03-30T08:07:41.566Z,7.50
2023-03-30T08:10:10.510Z,5.18
2023-03-30T08:12:38.959Z,4.95
2023-03-30T08:15:08.061Z,7.22
2023-03-30T08:17:37.162Z,5.22
2023-03-30T08:20:11.130Z,6.07
2023-03-30T08:22:39.920Z,4.80
2023-03-30T08:25:09.173Z,6.38
2023-03-30T08:27:37.755Z,4.85
2023-03-30T08:30:07.091Z,5.80
2023-03-30T08:32:35.497Z,6.30
2023-03-30T08:35:03.832Z,6.95
2023-03-30T08:37:33.886Z,6.82
2023-03-30T08:40:02.045Z,5.45
2023-03-30T08:42:48.470Z,6.00
2023-03-30T08:45:18.341Z,8.43
2023-03-30T08:47:49.995Z,5.43
2023-03-30T08:50:21.173Z,4.50
2023-03-30T08:52:52.529Z,4.07
2023-03-30T08:55:25.270Z,3.47
2023-03-30T08:57:58.850Z,5.22
2023-03-30T09:00:34.085Z,4.70
2023-03-30T09:03:12.312Z,5.50
2023-03-30T09:05:47.143Z,5.28
2023-03-30T09:08:20.359Z,6.85
2023-03-30T09:10:53.442Z,8.48
2023-03-30T09:13:23.826Z,4.40
2023-03-30T09:15:56.926Z,4.78
2023-03-30T09:18:29.290Z,4.90
2023-03-30T09:21:00.672Z,3.38
2023-03-30T09:23:32.028Z,4.80
2023-03-30T09:26:08.421Z,4.63
2023-03-30T09:28:41.686Z,5.13
2023-03-30T09:31:16.101Z,2.60
2023-03-30T09:33:46.976Z,4.32
2023-03-30T09:36:17.219Z,6.35
2023-03-30T09:38:47.379Z,5.90
2023-03-30T09:41:31.929Z,3.03
2023-03-30T09:44:01.533Z,3.50
2023-03-30T09:46:29.983Z,4.07
2023-03-30T09:49:14.080Z,10.13
2023-03-30T09:51:55.641Z,3.95
2023-03-30T09:54:26.303Z,2.92
2023-03-30T09:56:57.098Z,9.07
2023-03-30T09:59:31.888Z,5.28
2023-03-30T10:02:20.572Z,4.20
2023-03-30T10:05:02.630Z,6.65
2023-03-30T10:07:36.394Z,4.63
2023-03-30T10:10:16.613Z,5.07
2023-03-30T10:12:46.370Z,4.20
2023-03-30T10:15:19.262Z,5.70
2023-03-30T10:17:51.220Z,5.07
2023-03-30T10:20:30.996Z,4.60
2023-03-30T10:23:03.096Z,5.88
2023-03-30T10:25:34.838Z,5.35
2023-03-30T10:30:33.158Z,4.05
2023-03-30T10:33:03.358Z,4.95
2023-03-30T10:35:35.931Z,6.47
2023-03-30T10:38:06.044Z,8.98
2023-03-30T10:40:37.636Z,2.67
2023-03-30T10:43:12.144Z,4.80
2023-03-30T10:45:43.496Z,3.90
2023-03-30T10:48:22.730Z,4.95
2023-03-30T10:50:55.447Z,2.97
2023-03-30T10:53:34.254Z,3.53
2023-03-30T10:56:08.018Z,5.72
2023-03-30T10:58:56.255Z,4.10
2023-03-30T11:01:29.481Z,2.75
2023-03-30T11:04:09.325Z,3.45
2023-03-30T11:06:45.662Z,3.40
2023-03-30T11:09:17.450Z,12.73
2023-03-30T11:11:51.072Z,2.90
2023-03-30T11:14:24.857Z,3.58
2023-03-30T11:16:55.091Z,3.85
2023-03-30T11:19:25.740Z,3.33
2023-03-30T11:21:58.870Z,4.38
2023-03-30T11:24:29.368Z,2.42
2023-03-30T11:27:02.376Z,4.80
2023-03-30T11:29:37.012Z,4.47
2023-03-30T11:32:17.678Z,3.38
2023-03-30T11:34:54.861Z,31.00
2023-03-30T11:37:29.776Z,5.35
2023-03-30T11:40:01.901Z,6.57
2023-03-30T11:42:32.801Z,4.28
2023-03-30T11:45:19.177Z,4.43
2023-03-30T11:48:01.735Z,3.38
2023-03-30T11:50:40.647Z,4.63
2023-03-30T11:53:19.613Z,3.88
2023-03-30T11:55:57.944Z,9.15
2023-03-30T11:58:35.599Z,7.07
2023-03-30T12:01:24.090Z,4.15
2023-03-30T12:03:55.260Z,8.40
2023-03-30T12:06:31.111Z,7.50
2023-03-30T12:09:24.748Z,4.47
2023-03-30T12:11:56.526Z,8.50
2023-03-30T12:14:53.474Z,6.05
2023-03-30T12:17:34.339Z,7.97
2023-03-30T12:20:07.003Z,8.38
2023-03-30T12:22:41.047Z,6.80
2023-03-30T12:25:20.268Z,8.02
2023-03-30T12:28:06.751Z,3.22
2023-03-30T12:30:45.975Z,4.97
2023-03-30T12:33:19.492Z,9.77
2023-03-30T12:35:59.235Z,9.63
2023-03-30T12:38:29.938Z,8.60
2023-03-30T12:41:15.409Z,8.95
2023-03-30T12:44:09.135Z,4.60
2023-03-30T12:46:41.938Z,6.53
2023-03-30T12:49:16.696Z,9.05
2023-03-30T12:51:58.486Z,5.18
2023-03-30T12:54:43.382Z,8.80
2023-03-30T12:57:22.573Z,7.50
2023-03-30T13:00:22.175Z,8.43
2023-03-30T13:03:29.712Z,7.75
2023-03-30T13:06:00.186Z,5.60
2023-03-30T13:08:33.183Z,8.05
2023-03-30T13:11:10.244Z,8.63
2023-03-30T13:13:53.472Z,7.25
2023-03-30T13:16:48.412Z,6.00
2023-03-30T13:19:27.549Z,9.88
2023-03-30T13:22:05.552Z,9.82
2023-03-30T13:24:37.934Z,9.80
2023-03-30T13:27:22.048Z,11.77
2023-03-30T13:29:51.576Z,6.50
2023-03-30T13:32:21.888Z,8.68
2023-03-30T13:35:07.731Z,7.68
2023-03-30T13:38:00.553Z,7.78
2023-03-30T13:40:40.263Z,8.57
2023-03-30T13:43:19.765Z,6.97
2023-03-30T13:45:51.420Z,6.97
2023-03-30T13:48:33.034Z,9.93
2023-03-30T13:51:04.493Z,11.57
2023-03-30T13:53:38.905Z,5.25
2023-03-30T13:56:08.982Z,7.22
2023-03-30T13:58:37.973Z,9.73
2023-03-30T14:01:10.244Z,9.05
2023-03-30T14:03:41.489Z,9.75
2023-03-30T14:06:17.924Z,8.68
2023-03-30T14:08:48.748Z,7.97
2023-03-30T14:11:19.450Z,9.07
2023-03-30T14:13:50.552Z,8.57
2023-03-30T14:16:21.389Z,9.30
2023-03-30T14:18:49.994Z,13.25
2023-03-30T14:21:21.853Z,8.63
2023-03-30T14:23:51.967Z,14.05
2023-03-30T14:26:24.704Z,16.77
2023-03-30T14:28:55.643Z,13.88
2023-03-30T14:31:23.818Z,8.88
2023-03-30T14:33:52.401Z,12.50
2023-03-30T14:36:22.693Z,8.50
2023-03-30T14:38:53.151Z,13.63
2023-03-30T14:41:23.887Z,11.43
2023-03-30T14:43:55.116Z,17.75
2023-03-30T14:46:25.488Z,12.43
2023-03-30T14:48:54.090Z,13.15
2023-03-30T14:51:29.462Z,8.32
2023-03-30T14:53:58.445Z,11.55
2023-03-30T14:56:28.053Z,17.20
2023-03-30T14:58:57.057Z,10.25
2023-03-30T15:01:31.218Z,12.82
2023-03-30T15:04:01.218Z,15.38
2023-03-30T15:06:31.638Z,13.35
2023-03-30T15:09:04.422Z,7.45
2023-03-30T15:11:34.200Z,7.22
2023-03-30T15:14:05.034Z,8.05
2023-03-30T15:16:35.981Z,14.43
2023-03-30T15:19:06.901Z,11.13
2023-03-30T15:21:37.845Z,16.50
2023-03-30T15:24:08.236Z,11.48
2023-03-30T15:26:36.746Z,16.80
2023-03-30T15:29:06.224Z,14.75
2023-03-30T15:31:34.380Z,12.13
2023-03-30T15:34:03.043Z,14.98
2023-03-30T15:36:39.379Z,17.45
2023-03-30T15:39:20.749Z,13.05
2023-03-30T15:41:50.494Z,13.85
2023-03-30T15:44:20.339Z,11.20
2023-03-30T15:46:50.528Z,9.13
2023-03-30T15:49:20.862Z,12.15
2023-03-30T15:51:52.845Z,13.85
2023-03-30T15:56:53.106Z,11.07
2023-03-30T16:01:53.242Z,14.38
2023-03-30T16:04:23.171Z,27.20
2023-03-30T16:06:53.609Z,13.88
2023-03-30T16:09:22.793Z,8.70
2023-03-30T16:11:51.316Z,12.20
2023-03-30T16:14:21.110Z,18.30
2023-03-30T16:16:49.296Z,8.88
2023-03-30T16:19:20.768Z,14.57
2023-03-30T16:21:49.052Z,9.32
2023-03-30T16:24:18.829Z,13.23
2023-03-30T16:26:47.416Z,11.73
2023-03-30T16:29:21.330Z,12.65
2023-03-30T16:31:49.720Z,11.00
2023-03-30T16:34:18.592Z,13.55
2023-03-30T16:36:47.990Z,9.85
2023-03-30T16:39:20.202Z,9.32
2023-03-30T16:41:49.513Z,11.20
2023-03-30T16:44:18.701Z,17.73
2023-03-30T16:46:47.646Z,11.75
2023-03-30T16:49:17.646Z,16.90
2023-03-30T16:51:46.437Z,16.63
2023-03-30T16:54:27.625Z,12.43
2023-03-30T16:57:00.760Z,11.57
2023-03-30T16:59:30.909Z,12.30
2023-03-30T17:02:00.015Z,16.83
2023-03-30T17:04:28.733Z,14.10
2023-03-30T17:06:56.995Z,13.32
2023-03-30T17:09:25.603Z,13.70
2023-03-30T17:11:54.112Z,11.48
2023-03-30T17:14:24.582Z,8.18
2023-03-30T17:16:52.909Z,18.30
2023-03-30T17:19:21.548Z,14.77
2023-03-30T17:21:50.294Z,15.52
2023-03-30T17:24:18.784Z,17.63
2023-03-30T17:26:46.960Z,14.25
2023-03-30T17:29:15.532Z,15.45
2023-03-30T17:31:45.965Z,12.65
2023-03-30T17:34:15.361Z,15.85
2023-03-30T17:36:43.717Z,13.73
2023-03-30T17:39:14.083Z,15.23
2023-03-30T17:41:42.602Z,21.13
2023-03-30T17:44:11.149Z,16.08
2023-03-30T17:46:39.440Z,12.05
2023-03-30T17:49:16.944Z,14.77
2023-03-30T17:51:45.099Z,19.58
2023-03-30T17:54:13.573Z,15.10
2023-03-30T17:56:41.982Z,13.98
2023-03-30T17:59:11.602Z,17.90
2023-03-30T18:01:39.904Z,12.07
2023-03-30T18:04:09.535Z,16.20
2023-03-30T18:06:39.103Z,17.20
2023-03-30T18:09:10.622Z,16.10
2023-03-30T18:11:38.891Z,18.77
2023-03-30T18:14:08.194Z,14.98
2023-03-30T18:16:38.225Z,19.02
2023-03-30T18:19:07.005Z,17.70
2023-03-30T18:21:36.031Z,15.82
2023-03-30T18:24:06.478Z,19.02
2023-03-30T18:26:35.569Z,16.08
2023-03-30T18:29:06.489Z,18.45
2023-03-30T18:31:34.794Z,16.15
2023-03-30T18:34:03.691Z,18.48
2023-03-30T18:36:31.881Z,21.55
2023-03-30T18:39:01.226Z,23.60
2023-03-30T18:41:30.836Z,16.65
2023-03-30T18:44:00.049Z,14.73
2023-03-30T18:46:28.230Z,16.10
2023-03-30T18:48:57.110Z,14.98
2023-03-30T18:51:25.257Z,13.02
2023-03-30T18:53:53.640Z,16.95
2023-03-30T18:56:22.807Z,16.60
2023-03-30T18:58:53.343Z,20.55
2023-03-30T19:01:21.775Z,21.92
2023-03-30T19:03:50.647Z,16.95
2023-03-30T19:06:23.225Z,20.92
2023-03-30T19:08:52.333Z,20.33
2023-03-30T19:11:23.079Z,16.65
2023-03-30T19:13:52.963Z,17.90
2023-03-30T19:16:22.240Z,18.52
2023-03-30T19:18:50.933Z,16.15
2023-03-30T19:21:19.708Z,17.48
2023-03-30T19:23:50.062Z,14.13
2023-03-30T19:26:18.241Z,15.35
2023-03-30T19:28:46.918Z,15.32
2023-03-30T19:31:16.790Z,20.40
2023-03-30T19:33:45.298Z,15.55
2023-03-30T19:36:13.678Z,19.67
2023-03-30T19:38:43.893Z,19.83
2023-03-30T19:41:12.245Z,17.15
2023-03-30T19:43:40.794Z,22.40
2023-03-30T19:46:09.229Z,19.58
2023-03-30T19:48:38.987Z,21.85
2023-03-30T19:51:19.120Z,18.88
2023-03-30T19:53:47.629Z,16.33
2023-03-30T19:56:16.498Z,12.75
2023-03-30T19:58:45.233Z,12.23
2023-03-30T20:01:13.519Z,10.90
2023-03-30T20:03:43.454Z,12.55
2023-03-30T20:06:12.478Z,7.63
2023-03-30T20:08:41.461Z,10.90
2023-03-30T20:11:10.548Z,9.90
2023-03-30T20:13:45.301Z,8.88
2023-03-30T20:16:20.401Z,12.43
2023-03-30T20:18:52.075Z,7.70
2023-03-30T20:21:20.753Z,9.17
2023-03-30T20:23:49.229Z,9.88
2023-03-30T20:26:19.406Z,11.38
2023-03-30T20:29:20.802Z,8.38
2023-03-30T20:31:49.159Z,8.10
2023-03-30T20:34:19.804Z,6.78
2023-03-30T20:36:49.931Z,7.07
2023-03-30T20:39:21.675Z,6.88
2023-03-30T20:41:53.910Z,9.40
2023-03-30T20:44:29.850Z,9.50
2023-03-30T20:46:59.103Z,7.32
2023-03-30T20:49:29.808Z,8.57
2023-03-30T20:52:00.857Z,7.40
2023-03-30T20:54:29.748Z,9.65
2023-03-30T20:56:58.116Z,10.35
2023-03-30T20:59:26.706Z,7.38
2023-03-30T21:01:58.972Z,7.95
2023-03-30T21:04:29.121Z,14.45
2023-03-30T21:06:57.697Z,10.43
2023-03-30T21:09:26.332Z,10.75
2023-03-30T21:11:54.688Z,12.32
2023-03-30T21:14:24.015Z,11.85
2023-03-30T21:16:52.281Z,10.23
2023-03-30T21:19:20.727Z,11.90
2023-03-30T21:21:50.438Z,13.00
2023-03-30T21:24:18.906Z,13.60
2023-03-30T21:26:47.214Z,10.48
2023-03-30T21:29:15.791Z,10.25
2023-03-30T21:31:44.292Z,15.32
2023-03-30T21:34:13.284Z,10.23
2023-03-30T21:36:41.616Z,14.25
2023-03-30T21:39:11.366Z,14.43
2023-03-30T21:41:39.454Z,14.77
2023-03-30T21:44:08.044Z,9.35
2023-03-30T21:46:36.202Z,10.15
2023-03-30T21:49:04.589Z,14.10
2023-03-30T21:51:32.927Z,13.85
2023-03-30T21:54:01.333Z,11.18
2023-03-30T21:56:31.997Z,15.93
2023-03-30T21:59:00.459Z,18.88
2023-03-30T22:01:28.615Z,10.38
2023-03-30T22:03:57.338Z,9.30
2023-03-30T22:06:25.677Z,13.63
2023-03-30T22:12:10.172Z,10.88
2023-03-30T22:14:38.537Z,11.82
2023-03-30T22:17:07.781Z,9.95
2023-03-30T22:19:36.378Z,13.80
2023-03-30T22:22:04.761Z,11.10
2023-03-30T22:24:33.255Z,11.25
2023-03-30T22:27:01.386Z,9.80
2023-03-30T22:29:31.547Z,12.32
2023-03-30T22:31:59.910Z,13.63
2023-03-30T22:34:28.473Z,15.20
2023-03-30T22:36:56.749Z,11.57
2023-03-30T22:39:25.166Z,13.20
2023-03-30T22:41:53.267Z,13.18
2023-03-30T22:44:44.780Z,13.93
2023-03-30T22:47:12.953Z,10.93
2023-03-30T22:49:41.335Z,13.05
2023-03-30T22:52:09.608Z,15.30
2023-03-30T22:54:38.005Z,13.15
2023-03-30T22:57:06.194Z,15.10
2023-03-30T23:02:22.174Z,12.95
2023-03-30T23:04:52.846Z,17.73
2023-03-30T23:07:21.712Z,16.45
2023-03-30T23:09:50.622Z,18.67
2023-03-30T23:12:18.730Z,14.80
2023-03-30T23:14:48.065Z,12.40
2023-03-30T23:17:16.156Z,12.88
2023-03-30T23:19:46.159Z,10.57
2023-03-30T23:22:14.247Z,10.75
2023-03-30T23:24:42.647Z,15.93
2023-03-30T23:27:11.089Z,16.00
2023-03-30T23:29:39.670Z,15.75
2023-03-30T23:32:08.230Z,17.73
2023-03-30T23:34:36.671Z,14.13
2023-03-30T23:37:06.951Z,15.48
2023-03-30T23:39:35.324Z,17.02
2023-03-30T23:42:03.412Z,12.02
2023-03-30T23:44:31.842Z,14.13
2023-03-30T23:46:59.980Z,13.45
2023-03-30T23:49:28.360Z,13.40
2023-03-30T23:51:56.991Z,16.33
2023-03-30T23:54:26.712Z,14.38
2023-03-30T23:56:57.517Z,16.95
2023-03-30T23:59:26.316Z,16.17
